»·PEaware :: BOE71 KSFO-KSBA

BOE71 :: KSFO-KSBA

FLIGHT INFORMATION

Flight Status: Arrived
Operator:
Boeing Commercial Airplane Group
More flights by this operator :: More flights under this callsign
Pilot: Ryan C. (15122)
Aircraft: BOEING 727-100
(B721)
More flights by this aircraft type
Origin: KSFO San Francisco Intl
United States
Destination: KSBA Santa Barbara Mun
United States
More flights between these airports :: More routes between these airports
Route: +OFFSH2 GVO HABUT
File this flight plan on PilotEdge
Remarks:
Altitude:
(Current/Filed)
31,000ft
Speed:
(Current/Filed)
470kts
Departed: 04-Dec-20 04:34 PM
Arrived: 04-Dec-20 05:21 PM
Distance/Time
Traveled:
228nm/0:47
Distance/Time
To Go:
Arrived

Flight Plot

Page will automatically refresh every two minutes.

Flight plan parsing failed; only flown route is shown


Map Options




Map Legend


Flown Route
Filed Route
Departure Airport
Arrival Airport
Navaid (VOR, NDB)
Fix

Horizontal Profiles

Position Reports

Time Latitude Longitude Heading Altitude Ground
Speed
04-Dec-20 16:01 37.617864 -122.380603 257 21ft 0kts
04-Dec-20 16:02 37.617864 -122.380603 257 21ft 0kts
04-Dec-20 16:03 37.617864 -122.380603 257 21ft 0kts
04-Dec-20 16:04 37.617864 -122.380603 257 21ft 0kts
04-Dec-20 16:05 37.617864 -122.380603 257 21ft 0kts
04-Dec-20 16:06 37.617864 -122.380603 257 21ft 0kts
04-Dec-20 16:07 37.617864 -122.380603 257 21ft 0kts
04-Dec-20 16:08 37.617864 -122.380603 257 21ft 0kts
04-Dec-20 16:09 37.617864 -122.380603 257 21ft 0kts
04-Dec-20 16:10 37.617864 -122.380603 257 21ft 0kts
04-Dec-20 16:11 37.617864 -122.380603 257 21ft 0kts
04-Dec-20 16:12 37.617864 -122.380603 257 21ft 0kts
04-Dec-20 16:13 37.617864 -122.380603 257 21ft 0kts
04-Dec-20 16:14 37.617864 -122.380603 257 21ft 0kts
04-Dec-20 16:15 37.617864 -122.380603 257 21ft 0kts
04-Dec-20 16:16 37.617864 -122.380603 257 21ft 0kts
04-Dec-20 16:17 37.617864 -122.380603 257 21ft 0kts
04-Dec-20 16:18 37.617864 -122.380603 257 21ft 0kts
04-Dec-20 16:19 37.617864 -122.380603 257 21ft 0kts
04-Dec-20 16:20 37.617864 -122.380603 257 21ft 0kts
04-Dec-20 16:21 37.617864 -122.380603 257 21ft 0kts
04-Dec-20 16:22 37.617890 -122.380454 257 21ft 2kts
04-Dec-20 16:23 37.618130 -122.379866 206 21ft 2kts
04-Dec-20 16:24 37.618547 -122.379915 147 21ft 0kts
04-Dec-20 16:25 37.618546 -122.379914 147 21ft 0kts
04-Dec-20 16:26 37.618546 -122.379914 147 21ft 0kts
04-Dec-20 16:27 37.617313 -122.379444 180 21ft 11kts
04-Dec-20 16:28 37.614222 -122.381228 208 21ft 14kts
04-Dec-20 16:29 37.610427 -122.383761 210 21ft 15kts
04-Dec-20 16:30 37.608490 -122.383914 117 21ft 0kts
04-Dec-20 16:31 37.608491 -122.383914 117 21ft 0kts
04-Dec-20 16:32 37.609070 -122.382147 28 21ft 13kts
04-Dec-20 16:33 37.642071 -122.370346 354 1672ft 189kts
04-Dec-20 16:34 37.699337 -122.363073 345 5655ft 232kts
04-Dec-20 16:35 37.705281 -122.430414 222 9498ft 265kts
04-Dec-20 16:36 37.641523 -122.491111 216 12993ft 310kts
04-Dec-20 16:37 37.569845 -122.556570 216 16700ft 328kts
04-Dec-20 16:38 37.490407 -122.627349 216 18902ft 377kts
04-Dec-20 16:39 37.383194 -122.658116 176 21259ft 410kts
04-Dec-20 16:40 37.271511 -122.640242 171 24270ft 409kts
04-Dec-20 16:41 37.157753 -122.612731 173 26178ft 426kts
04-Dec-20 16:42 37.038491 -122.591485 174 27844ft 442kts
04-Dec-20 16:43 36.913275 -122.570140 171 29410ft 455kts
04-Dec-20 16:44 36.786164 -122.539583 168 30684ft 470kts
04-Dec-20 16:45 36.656308 -122.499814 166 31241ft 495kts
04-Dec-20 16:46 36.522480 -122.455980 166 31229ft 503kts
04-Dec-20 16:47 36.386613 -122.413268 167 31229ft 507kts
04-Dec-20 16:49 36.248755 -122.374973 169 31229ft 510kts
04-Dec-20 16:50 36.113961 -122.325252 142 31223ft 513kts
04-Dec-20 16:51 36.032544 -122.182395 120 31230ft 511kts
04-Dec-20 16:52 35.959848 -122.032569 119 31215ft 509kts
04-Dec-20 16:53 35.890833 -121.885070 117 29857ft 482kts
04-Dec-20 16:54 35.831219 -121.741434 114 28433ft 462kts
04-Dec-20 16:55 35.778859 -121.599993 113 26935ft 447kts
04-Dec-20 16:56 35.726062 -121.463917 117 25438ft 436kts
04-Dec-20 16:57 35.666371 -121.337037 124 24262ft 421kts
04-Dec-20 16:58 35.591274 -121.230646 136 24217ft 411kts
04-Dec-20 16:59 35.510291 -121.129341 134 23815ft 422kts
04-Dec-20 17:00 35.433321 -121.020293 130 22824ft 422kts
04-Dec-20 17:01 35.359217 -120.910474 131 21832ft 415kts
04-Dec-20 17:02 35.284826 -120.805359 131 20833ft 402kts
04-Dec-20 17:03 35.205294 -120.715287 143 19828ft 381kts
04-Dec-20 17:03 35.138735 -120.649775 143 18557ft 360kts
04-Dec-20 17:05 35.048413 -120.565511 143 16691ft 342kts
04-Dec-20 17:06 34.973978 -120.495921 142 14904ft 336kts
04-Dec-20 17:06 34.912524 -120.438056 142 13322ft 333kts
04-Dec-20 17:07 34.839780 -120.369574 142 11721ft 330kts
04-Dec-20 17:08 34.763654 -120.308373 148 10221ft 327kts
04-Dec-20 17:09 34.695124 -120.249899 142 8865ft 275kts
04-Dec-20 17:10 34.636963 -120.192320 141 7575ft 271kts
04-Dec-20 17:11 34.578243 -120.135152 142 7014ft 269kts
04-Dec-20 17:12 34.523650 -120.082534 142 7007ft 231kts
04-Dec-20 17:13 34.474798 -120.035243 142 6180ft 228kts
04-Dec-20 17:14 34.425210 -119.987053 142 4978ft 223kts
04-Dec-20 17:15 34.394723 -119.926401 92 3982ft 212kts
04-Dec-20 17:16 34.395119 -119.859487 89 2957ft 180kts
04-Dec-20 17:17 34.397568 -119.805633 60 1784ft 147kts
04-Dec-20 17:18 34.429605 -119.805224 273 564ft 126kts
04-Dec-20 17:19 34.427725 -119.844301 268 25ft 84kts
04-Dec-20 17:20 34.426492 -119.851341 102 25ft 0kts
04-Dec-20 17:21 34.426466 -119.848035 87 25ft 17kts
04-Dec-20 17:22 34.426652 -119.841099 88 25ft 23kts
04-Dec-20 17:23 34.425754 -119.837423 88 25ft 7kts
04-Dec-20 17:24 34.425724 -119.837120 98 25ft 0kts
04-Dec-20 17:25 34.425724 -119.837120 98 25ft 0kts
04-Dec-20 17:26 34.425724 -119.837120 98 25ft 0kts
04-Dec-20 17:27 34.425724 -119.837120 98 25ft 0kts
04-Dec-20 17:28 34.425724 -119.837120 98 25ft 0kts
04-Dec-20 17:29 34.425724 -119.837120 98 25ft 0kts
04-Dec-20 17:30 34.425724 -119.837120 98 25ft 0kts
04-Dec-20 17:31 34.425724 -119.837120 98 25ft 0kts
04-Dec-20 17:32 34.425724 -119.837120 98 25ft 0kts
04-Dec-20 17:33 34.425724 -119.837120 98 25ft 0kts
04-Dec-20 17:34 34.425724 -119.837120 98 25ft 0kts

Navigation Log

Ident Type
Flight plan parsing failed, navigation log unavailable